createdAt,value
2018-12-24T00:00:34.434Z,29
2018-12-24T00:01:24.225Z,29.1
2018-12-24T00:02:14.289Z,29.1
2018-12-24T00:03:04.715Z,29.2
2018-12-24T00:03:54.710Z,29.2
2018-12-24T00:04:43.608Z,29.3
2018-12-24T00:05:35.310Z,29.3
2018-12-24T00:06:23.475Z,29.3
2018-12-24T00:07:14.373Z,29.3
2018-12-24T00:08:05.388Z,29.3
2018-12-24T00:08:54.550Z,29.2
2018-12-24T00:09:45.350Z,29.1
2018-12-24T00:10:35.493Z,28.9
2018-12-24T00:11:25.228Z,28.9
2018-12-24T00:12:17.860Z,28.7
2018-12-24T00:13:05.135Z,28.6
2018-12-24T00:13:54.527Z,28.4
2018-12-24T00:14:45.140Z,28.3
2018-12-24T00:32:50.251Z,28.6
2018-12-24T00:33:39.473Z,28.6
2018-12-24T00:34:29.268Z,28.8
2018-12-24T00:35:19.613Z,28.8
2018-12-24T00:36:10.506Z,28.8
2018-12-24T00:36:59.708Z,28.9
2018-12-24T00:37:50.677Z,28.9
2018-12-24T00:38:38.282Z,29
2018-12-24T00:39:29.691Z,29
2018-12-24T00:40:20.443Z,29.1
2018-12-24T00:41:10.173Z,28.9
2018-12-24T00:42:00.603Z,28.7
2018-12-24T00:42:50.958Z,28.4
2018-12-24T00:43:40.696Z,28.1
2018-12-24T00:44:30.770Z,28
2018-12-24T00:45:20.178Z,28
2018-12-24T00:46:11.160Z,28.1
2018-12-24T00:47:00.118Z,27.9
2018-12-24T00:47:51.560Z,27.8
2018-12-24T00:48:41.390Z,27.6
2018-12-24T00:49:30.667Z,27.4
2018-12-24T00:50:21.209Z,27.4
2018-12-24T00:51:10.715Z,27.5
2018-12-24T00:51:59.350Z,27.8
2018-12-24T00:52:52.268Z,27.9
2018-12-24T00:53:41.385Z,28.1
2018-12-24T00:54:31.459Z,28.2
2018-12-24T00:55:19.967Z,28.3
2018-12-24T00:56:11.310Z,28.4
2018-12-24T00:57:01.730Z,28.5
2018-12-24T00:57:52.009Z,28.6
2018-12-24T00:58:41.464Z,28.7
2018-12-24T00:59:31.525Z,28.8
2018-12-24T01:00:21.959Z,28.8
2018-12-24T01:01:12.510Z,28.9
2018-12-24T01:02:01.613Z,28.9
2018-12-24T01:02:51.804Z,29
2018-12-24T01:03:42.188Z,29.1
2018-12-24T01:04:31.444Z,29.1
2018-12-24T01:05:21.216Z,29.2
2018-12-24T01:06:12.607Z,29.2
2018-12-24T01:07:01.737Z,29.3
2018-12-24T01:07:52.142Z,29.3
2018-12-24T01:08:42.493Z,29.3
2018-12-24T01:09:32.354Z,29.3
2018-12-24T01:10:22.689Z,29.1
2018-12-24T01:11:10.822Z,29.1
2018-12-24T01:12:03.476Z,28.9
2018-12-24T01:12:51.866Z,28.8
2018-12-24T01:13:41.394Z,28.7
2018-12-24T01:14:32.236Z,28.6
2018-12-24T01:15:23.216Z,28.4
2018-12-24T01:16:12.948Z,28.3
2018-12-24T01:17:03.079Z,28.1
2018-12-24T01:17:52.821Z,28
2018-12-24T01:18:42.309Z,27.9
2018-12-24T01:19:32.706Z,27.8
2018-12-24T01:20:23.056Z,27.5
2018-12-24T01:21:12.651Z,27.5
2018-12-24T01:22:03.139Z,27.4
2018-12-24T01:22:52.603Z,27.4
2018-12-24T01:23:42.306Z,27.4
2018-12-24T01:24:32.743Z,27.3
2018-12-24T01:25:22.830Z,27.4
2018-12-24T01:26:13.135Z,27.6
2018-12-24T01:27:02.922Z,27.7
2018-12-24T01:27:53.373Z,27.9
2018-12-24T01:28:42.773Z,28
2018-12-24T01:29:32.855Z,28.1
2018-12-24T01:30:24.478Z,28.3
2018-12-24T01:31:14.242Z,28.3
2018-12-24T01:32:03.505Z,28.4
2018-12-24T01:32:53.755Z,28.5
2018-12-24T01:33:43.362Z,28.6
2018-12-24T01:34:34.000Z,28.7
2018-12-24T01:35:23.960Z,28.8
2018-12-24T01:36:14.538Z,28.8
2018-12-24T01:37:06.201Z,28.9
2018-12-24T01:37:54.104Z,28.9
2018-12-24T01:38:44.625Z,28.9
2018-12-24T01:39:34.537Z,29
2018-12-24T01:40:24.125Z,29.1
2018-12-24T01:41:14.117Z,29.1
2018-12-24T01:42:03.916Z,29.1
2018-12-24T01:42:54.755Z,29.2
2018-12-24T01:43:43.842Z,29.3
2018-12-24T01:44:34.693Z,29.3
2018-12-24T01:45:24.159Z,29.3
2018-12-24T01:46:14.711Z,29.3
2018-12-24T01:47:04.511Z,29.3
2018-12-24T01:47:55.062Z,29.3
2018-12-24T01:48:45.179Z,29.2
2018-12-24T01:49:34.674Z,29.1
2018-12-24T01:50:24.444Z,29
2018-12-24T01:51:14.213Z,28.9
2018-12-24T01:52:04.838Z,28.8
2018-12-24T01:52:55.428Z,28.6
2018-12-24T01:53:45.363Z,28.5
2018-12-24T01:54:34.470Z,28.3
2018-12-24T01:55:25.375Z,28.2
2018-12-24T01:56:14.623Z,28.1
2018-12-24T01:57:05.213Z,27.9
2018-12-24T01:58:45.098Z,27.6
2018-12-24T01:59:35.818Z,27.6
2018-12-24T02:00:26.308Z,27.4
2018-12-24T02:01:15.716Z,27.4
2018-12-24T02:02:06.158Z,27.4
2018-12-24T02:02:55.845Z,27.4
2018-12-24T02:03:47.228Z,27.4
2018-12-24T02:04:35.963Z,27.5
2018-12-24T02:05:25.483Z,27.7
2018-12-24T02:06:15.228Z,27.9
2018-12-24T02:07:06.410Z,28
2018-12-24T02:07:56.862Z,28.1
2018-12-24T02:08:46.865Z,28.2
2018-12-24T02:09:36.278Z,28.3
2018-12-24T02:10:26.355Z,28.4
2018-12-24T02:11:15.542Z,28.4
2018-12-24T02:12:06.888Z,28.6
2018-12-24T02:12:56.530Z,28.6
2018-12-24T02:13:46.582Z,28.7
2018-12-24T02:14:36.787Z,28.8
2018-12-24T02:15:26.165Z,28.8
2018-12-24T02:16:17.652Z,28.8
2018-12-24T02:17:07.172Z,28.9
2018-12-24T02:17:56.219Z,28.9
2018-12-24T02:18:46.857Z,28.9
2018-12-24T02:19:37.967Z,29
2018-12-24T02:20:25.746Z,28.9
2018-12-24T02:21:16.599Z,28.8
2018-12-24T02:22:17.009Z,28.6
2018-12-24T02:22:57.324Z,28.2
2018-12-24T02:23:47.284Z,28
2018-12-24T02:24:37.956Z,27.9
2018-12-24T02:25:26.869Z,27.9
2018-12-24T02:26:18.029Z,27.9
2018-12-24T02:27:57.606Z,27.7
2018-12-24T02:28:48.126Z,27.6
2018-12-24T02:29:38.206Z,27.4
2018-12-24T02:30:28.812Z,27.3
2018-12-24T02:31:17.504Z,27.4
2018-12-24T02:32:08.059Z,27.6
2018-12-24T02:32:58.003Z,27.8
2018-12-24T02:33:48.641Z,27.9
2018-12-24T02:34:37.529Z,28.1
2018-12-24T02:35:28.013Z,28.3
2018-12-24T02:36:19.032Z,28.3
2018-12-24T02:37:08.012Z,28.4
2018-12-24T02:37:58.678Z,28.5
2018-12-24T02:38:48.168Z,28.6
2018-12-24T02:39:39.131Z,28.7
2018-12-24T02:40:29.060Z,28.8
2018-12-24T02:41:19.578Z,28.8
2018-12-24T02:42:08.741Z,28.9
2018-12-24T02:43:02.538Z,28.9
2018-12-24T02:43:48.151Z,29
2018-12-24T02:44:38.348Z,29.1
2018-12-24T02:45:28.083Z,29.1
2018-12-24T02:46:18.669Z,29.2
2018-12-24T02:47:09.513Z,29.2
2018-12-24T02:47:59.388Z,29.3
2018-12-24T02:48:48.486Z,29.3
2018-12-24T02:49:38.935Z,29.3
2018-12-24T02:50:30.045Z,29.2
2018-12-24T02:51:19.498Z,29.1
2018-12-24T02:52:09.455Z,29
2018-12-24T02:52:58.817Z,28.9
2018-12-24T02:53:50.065Z,28.8
2018-12-24T02:54:40.475Z,28.6
2018-12-24T02:55:29.230Z,28.5
2018-12-24T02:56:19.589Z,28.4
2018-12-24T02:57:09.502Z,28.3
2018-12-24T02:58:00.057Z,28.1
2018-12-24T02:58:50.028Z,28
2018-12-24T03:00:30.286Z,27.7
2018-12-24T03:01:20.388Z,27.6
2018-12-24T03:02:10.308Z,27.4
2018-12-24T03:03:00.279Z,27.4
2018-12-24T03:03:49.622Z,27.4
2018-12-24T03:04:39.684Z,27.3
2018-12-24T03:05:29.397Z,27.3
2018-12-24T03:06:19.656Z,27.4
2018-12-24T03:07:09.054Z,27.6
2018-12-24T03:08:00.649Z,27.8
2018-12-24T03:08:51.094Z,27.9
2018-12-24T03:09:40.712Z,28
2018-12-24T03:10:30.147Z,28.1
2018-12-24T03:11:20.319Z,28.3
2018-12-24T03:12:10.832Z,28.4
2018-12-24T03:13:12.232Z,28.4
2018-12-24T03:13:50.011Z,28.5
2018-12-24T03:14:41.760Z,28.6
2018-12-24T03:15:31.716Z,28.7
2018-12-24T03:16:21.016Z,28.8
2018-12-24T03:17:10.546Z,28.8
2018-12-24T03:18:00.695Z,28.9
2018-12-24T03:18:51.366Z,28.9
2018-12-24T03:19:41.106Z,28.9
2018-12-24T03:20:31.314Z,29
2018-12-24T03:21:20.903Z,29.1
2018-12-24T03:22:10.691Z,29.1
2018-12-24T03:22:59.891Z,29.1
2018-12-24T03:23:50.523Z,29.2
2018-12-24T03:24:41.556Z,29.3
2018-12-24T03:25:31.384Z,29.3
2018-12-24T03:26:20.918Z,29.3
2018-12-24T03:27:10.751Z,29.3
2018-12-24T03:28:01.949Z,29.3
2018-12-24T03:28:52.902Z,29.3
2018-12-24T03:29:42.133Z,29.2
2018-12-24T03:30:33.434Z,29.1
2018-12-24T03:31:22.223Z,29
2018-12-24T03:32:11.667Z,28.9
2018-12-24T03:33:02.691Z,28.8
2018-12-24T03:33:52.429Z,28.6
2018-12-24T03:34:42.560Z,28.4
2018-12-24T03:35:32.333Z,28.3
2018-12-24T03:36:22.868Z,28.2
2018-12-24T03:37:12.731Z,28.1
2018-12-24T03:38:03.171Z,28
2018-12-24T03:38:53.636Z,27.9
2018-12-24T03:39:42.597Z,27.6
2018-12-24T03:40:33.226Z,27.6
2018-12-24T03:41:22.840Z,27.4
2018-12-24T03:42:11.884Z,27.4
2018-12-24T03:43:13.217Z,27.4
2018-12-24T03:43:52.645Z,27.4
2018-12-24T03:44:42.817Z,27.4
2018-12-24T03:45:33.513Z,27.6
2018-12-24T03:46:23.500Z,27.8
2018-12-24T03:47:13.363Z,27.9
2018-12-24T03:48:03.117Z,28
2018-12-24T03:48:51.970Z,28.1
2018-12-24T03:49:43.029Z,28.2
2018-12-24T03:50:32.055Z,28.3
2018-12-24T03:51:23.640Z,28.4
2018-12-24T03:52:14.072Z,28.5
2018-12-24T03:53:03.506Z,28.6
2018-12-24T03:53:53.306Z,28.6
2018-12-24T03:54:43.509Z,28.7
2018-12-24T03:55:33.876Z,28.7
2018-12-24T03:56:23.356Z,28.8
2018-12-24T03:57:13.701Z,28.8
2018-12-24T03:58:03.509Z,28.9
2018-12-24T03:58:53.822Z,28.9
2018-12-24T03:59:44.121Z,29
2018-12-24T04:00:35.027Z,29
2018-12-24T04:01:24.323Z,28.9
2018-12-24T04:02:13.522Z,28.8
2018-12-24T04:03:03.803Z,28.5
2018-12-24T04:03:54.568Z,28.3
2018-12-24T04:04:44.026Z,28
2018-12-24T04:05:33.968Z,27.9
2018-12-24T04:06:24.628Z,27.9
2018-12-24T04:07:14.635Z,27.9
2018-12-24T04:08:03.998Z,27.9
2018-12-24T04:08:54.742Z,27.8
2018-12-24T04:09:45.063Z,27.6
2018-12-24T04:10:34.885Z,27.4
2018-12-24T04:11:27.661Z,27.4
2018-12-24T04:12:15.102Z,27.5
2018-12-24T04:13:05.413Z,27.7
2018-12-24T04:13:54.782Z,27.9
2018-12-24T04:14:44.498Z,28
2018-12-24T04:15:35.014Z,28.2
2018-12-24T04:16:25.148Z,28.3
2018-12-24T04:17:14.333Z,28.4
2018-12-24T04:18:05.450Z,28.5
2018-12-24T04:18:54.999Z,28.6
2018-12-24T04:19:43.660Z,28.7
2018-12-24T04:20:34.233Z,28.8
2018-12-24T04:21:27.902Z,28.8
2018-12-24T04:22:15.552Z,28.9
2018-12-24T04:23:05.279Z,29
2018-12-24T04:23:55.209Z,29
2018-12-24T04:24:45.712Z,29.1
2018-12-24T04:25:36.361Z,29.1
2018-12-24T04:26:26.044Z,29.2
2018-12-24T04:27:14.679Z,29.2
2018-12-24T04:28:04.484Z,29.3
2018-12-24T04:28:55.564Z,29.3
2018-12-24T04:29:45.904Z,29.3
2018-12-24T04:30:37.720Z,29.3
2018-12-24T04:31:26.142Z,29.1
2018-12-24T04:32:16.166Z,29.1
2018-12-24T04:33:05.891Z,28.9
2018-12-24T04:33:56.069Z,28.8
2018-12-24T04:34:46.831Z,28.8
2018-12-24T04:35:36.928Z,28.6
2018-12-24T04:36:26.346Z,28.4
2018-12-24T04:37:15.786Z,28.3
2018-12-24T04:38:06.633Z,28.1
2018-12-24T04:38:57.178Z,28
2018-12-24T04:39:46.882Z,27.9
2018-12-24T04:41:27.276Z,27.6
2018-12-24T04:42:15.908Z,27.6
2018-12-24T04:43:06.297Z,27.4
2018-12-24T04:43:59.740Z,27.4
2018-12-24T04:44:47.919Z,27.4
2018-12-24T05:02:07.018Z,29.1
2018-12-24T05:02:56.020Z,29.1
2018-12-24T05:03:47.144Z,29.2
2018-12-24T05:04:35.996Z,29.2
2018-12-24T05:05:26.023Z,29.3
2018-12-24T05:06:17.542Z,29.3
2018-12-24T05:07:07.797Z,29.3
2018-12-24T05:07:57.094Z,29.3
2018-12-24T05:08:46.777Z,29.4
2018-12-24T05:09:36.564Z,29.3
2018-12-24T05:10:27.286Z,29.3
2018-12-24T05:11:17.847Z,29.2
2018-12-24T05:12:08.494Z,29.1
2018-12-24T05:12:57.934Z,28.9
2018-12-24T05:13:50.729Z,28.8
2018-12-24T05:14:38.121Z,28.7
2018-12-24T05:15:28.166Z,28.6
2018-12-24T05:16:17.638Z,28.4
2018-12-24T05:17:08.756Z,28.3
2018-12-24T05:17:57.691Z,28.2
2018-12-24T05:18:48.011Z,28.1
2018-12-24T05:19:37.783Z,27.9
2018-12-24T05:20:28.406Z,27.8
2018-12-24T05:21:18.560Z,27.6
2018-12-24T05:22:08.998Z,27.4
2018-12-24T05:22:58.831Z,27.4
2018-12-24T05:23:48.628Z,27.4
2018-12-24T05:24:39.214Z,27.4
2018-12-24T05:25:27.189Z,27.4
2018-12-24T05:26:19.078Z,27.4
2018-12-24T05:27:09.705Z,27.6
2018-12-24T05:27:58.366Z,27.8
2018-12-24T05:28:49.390Z,27.9
2018-12-24T05:29:39.025Z,28
2018-12-24T05:30:29.345Z,28.1
2018-12-24T05:31:19.458Z,28.2
2018-12-24T05:32:09.165Z,28.3
2018-12-24T05:32:59.009Z,28.4
2018-12-24T05:33:50.019Z,28.4
2018-12-24T05:34:39.131Z,28.5
2018-12-24T05:35:28.895Z,28.6
2018-12-24T05:36:18.496Z,28.6
2018-12-24T05:37:10.328Z,28.7
2018-12-24T05:37:59.562Z,28.8
2018-12-24T05:38:49.380Z,28.8
2018-12-24T05:39:39.145Z,28.8
2018-12-24T05:40:29.268Z,28.9
2018-12-24T05:41:19.523Z,28.9
2018-12-24T05:42:09.658Z,28.9
2018-12-24T05:42:59.702Z,28.7
2018-12-24T05:43:58.048Z,28.4
2018-12-24T05:44:39.655Z,28.1
2018-12-24T05:45:30.138Z,27.9
2018-12-24T05:47:09.171Z,27.6
2018-12-24T05:48:00.840Z,27.7
2018-12-24T05:49:40.212Z,27.7
2018-12-24T05:50:31.599Z,27.6
2018-12-24T05:51:20.051Z,27.4
2018-12-24T05:52:11.094Z,27.2
2018-12-24T05:53:01.015Z,27.2
2018-12-24T05:53:50.402Z,27.3
2018-12-24T05:54:40.184Z,27.5
2018-12-24T05:55:31.869Z,27.7
2018-12-24T05:56:21.107Z,27.9
2018-12-24T05:57:11.177Z,28
2018-12-24T05:58:01.266Z,28.1
2018-12-24T05:58:51.564Z,28.3
2018-12-24T05:59:40.779Z,28.3
2018-12-24T06:00:31.709Z,28.4
2018-12-24T06:01:21.172Z,28.5
2018-12-24T06:02:11.774Z,28.6
2018-12-24T06:03:01.691Z,28.7
2018-12-24T06:03:51.882Z,28.8
2018-12-24T06:04:41.509Z,28.8
2018-12-24T06:05:31.246Z,28.9
2018-12-24T06:06:21.509Z,28.9
2018-12-24T06:07:11.366Z,28.9
2018-12-24T06:08:01.879Z,29
2018-12-24T06:08:51.674Z,29.1
2018-12-24T06:09:40.601Z,29.1
2018-12-24T06:10:31.669Z,29.1
2018-12-24T06:11:21.552Z,29.1
2018-12-24T06:12:12.196Z,29.2
2018-12-24T06:13:02.194Z,29.1
2018-12-24T06:14:01.313Z,29.1
2018-12-24T06:14:42.066Z,29
2018-12-24T06:15:31.926Z,28.9
2018-12-24T06:16:21.268Z,28.8
2018-12-24T06:17:11.213Z,28.7
2018-12-24T06:18:04.708Z,28.6
2018-12-24T06:18:52.901Z,28.4
2018-12-24T06:19:42.868Z,28.3
2018-12-24T06:20:40.876Z,28.1
2018-12-24T06:21:21.961Z,28
2018-12-24T06:22:12.865Z,27.9
2018-12-24T06:23:03.830Z,27.8
2018-12-24T06:23:53.303Z,27.5
2018-12-24T06:24:42.193Z,27.5
2018-12-24T06:25:33.601Z,27.4
2018-12-24T06:26:22.685Z,27.3
2018-12-24T06:27:13.038Z,27.3
2018-12-24T06:28:02.274Z,27.3
2018-12-24T06:28:53.110Z,27.3
2018-12-24T06:29:43.352Z,27.4
2018-12-24T06:30:33.352Z,27.6
2018-12-24T06:31:22.748Z,27.8
2018-12-24T06:32:13.020Z,27.9
2018-12-24T06:33:03.875Z,28
2018-12-24T06:33:53.505Z,28.1
2018-12-24T06:34:42.467Z,28.3
2018-12-24T06:35:34.307Z,28.3
2018-12-24T06:36:23.324Z,28.4
2018-12-24T06:37:13.410Z,28.5
2018-12-24T06:38:04.739Z,28.6
2018-12-24T06:38:54.618Z,28.6
2018-12-24T06:39:43.480Z,28.8
2018-12-24T06:40:32.812Z,28.8
2018-12-24T06:41:23.859Z,28.9
2018-12-24T06:42:13.882Z,28.9
2018-12-24T06:43:04.069Z,28.9
2018-12-24T06:43:55.392Z,29
2018-12-24T06:44:43.926Z,29.1
2018-12-24T06:45:34.550Z,29.1
2018-12-24T06:46:23.359Z,29.2
2018-12-24T06:47:12.782Z,29.2
2018-12-24T06:48:03.397Z,29.3
2018-12-24T06:48:53.677Z,29.3
2018-12-24T06:49:44.247Z,29.3
2018-12-24T06:50:34.497Z,29.3
2018-12-24T06:51:25.319Z,29.3
2018-12-24T06:52:14.585Z,29.2
2018-12-24T06:53:04.661Z,29.1
2018-12-24T06:53:54.189Z,29
2018-12-24T06:54:44.309Z,28.9
2018-12-24T06:55:34.924Z,28.8
2018-12-24T06:56:24.891Z,28.6
2018-12-24T06:57:14.391Z,28.5
2018-12-24T06:58:04.441Z,28.4
2018-12-24T06:58:55.230Z,28.3
2018-12-24T06:59:46.052Z,28.1
2018-12-24T07:00:35.495Z,28
2018-12-24T07:01:24.790Z,27.9
2018-12-24T07:02:15.575Z,27.6
2018-12-24T07:03:05.077Z,27.6
2018-12-24T07:03:55.382Z,27.4
2018-12-24T07:04:45.817Z,27.4
2018-12-24T07:05:36.184Z,27.4
2018-12-24T07:06:25.293Z,27.4
2018-12-24T07:07:15.699Z,27.3
2018-12-24T07:08:05.709Z,27.4
2018-12-24T07:08:56.269Z,27.6
2018-12-24T07:09:45.866Z,27.8
2018-12-24T07:10:36.479Z,27.9
2018-12-24T07:11:25.728Z,28.1
2018-12-24T07:12:15.682Z,28.1
2018-12-24T07:13:05.466Z,28.3
2018-12-24T07:13:55.281Z,28.3
2018-12-24T07:14:46.361Z,28.4
2018-12-24T07:15:36.451Z,28.5
2018-12-24T07:16:26.511Z,28.6
2018-12-24T07:17:16.564Z,28.6
2018-12-24T07:18:05.349Z,28.7
2018-12-24T07:18:56.872Z,28.8
2018-12-24T07:19:46.768Z,28.8
2018-12-24T07:20:35.161Z,28.8
2018-12-24T07:21:26.868Z,28.9
2018-12-24T07:22:16.078Z,28.9
2018-12-24T07:23:06.214Z,28.9
2018-12-24T07:23:57.005Z,28.7
2018-12-24T07:24:47.160Z,28.4
2018-12-24T07:25:36.296Z,28.2
2018-12-24T07:26:26.549Z,27.9
2018-12-24T07:28:08.096Z,27.8
2018-12-24T07:29:04.873Z,27.9
2018-12-24T07:30:37.198Z,27.7
2018-12-24T07:31:28.323Z,27.6
2018-12-24T07:32:17.638Z,27.4
2018-12-24T07:33:07.840Z,27.3
2018-12-24T07:33:57.231Z,27.4
2018-12-24T07:34:47.155Z,27.6
2018-12-24T07:35:38.220Z,27.8
2018-12-24T07:36:27.980Z,27.9
2018-12-24T07:37:18.205Z,28.1
2018-12-24T07:38:09.773Z,28.2
2018-12-24T07:38:57.532Z,28.3
2018-12-24T07:39:48.079Z,28.4
2018-12-24T07:40:37.978Z,28.6
2018-12-24T07:41:27.914Z,28.6
2018-12-24T07:42:18.532Z,28.7
2018-12-24T07:43:08.168Z,28.8
2018-12-24T07:43:58.665Z,28.9
2018-12-24T07:44:48.664Z,28.9
2018-12-24T07:45:38.792Z,29
2018-12-24T07:46:27.767Z,29.1
2018-12-24T07:47:18.341Z,29.1
2018-12-24T07:48:07.702Z,29.1
2018-12-24T07:48:58.992Z,29.2
2018-12-24T07:49:48.290Z,29.2
2018-12-24T07:50:39.419Z,29.1
2018-12-24T07:51:27.966Z,29.1
2018-12-24T07:52:17.656Z,29.1
2018-12-24T07:53:08.649Z,29
2018-12-24T07:53:58.784Z,29
2018-12-24T07:54:49.362Z,28.9
2018-12-24T07:55:39.245Z,28.7
2018-12-24T07:56:28.686Z,28.4
2018-12-24T07:57:19.284Z,28.2
2018-12-24T07:58:08.786Z,28
2018-12-24T07:59:00.048Z,27.9
2018-12-24T07:59:49.448Z,27.6
2018-12-24T08:00:39.001Z,27.6
2018-12-24T08:01:29.395Z,28.3
2018-12-24T08:02:19.618Z,27.7
2018-12-24T08:03:09.423Z,27.5
2018-12-24T08:03:59.288Z,27.4
2018-12-24T08:04:49.050Z,27.4
2018-12-24T08:05:40.115Z,27.4
2018-12-24T08:06:29.977Z,27.7
2018-12-24T08:08:08.433Z,28
2018-12-24T08:08:59.517Z,28.1
2018-12-24T08:09:48.615Z,28.3
2018-12-24T08:10:40.187Z,28.4
2018-12-24T08:11:29.702Z,28.5
2018-12-24T08:12:22.172Z,28.6
2018-12-24T08:13:10.392Z,28.7
2018-12-24T08:14:00.710Z,28.8
2018-12-24T08:14:50.809Z,28.8
2018-12-24T08:15:39.692Z,28.9
2018-12-24T08:16:30.905Z,29
2018-12-24T08:17:19.256Z,29
2018-12-24T08:18:11.082Z,29.1
2018-12-24T08:19:00.525Z,29.1
2018-12-24T08:19:49.410Z,29.2
2018-12-24T08:20:40.639Z,29.3
2018-12-24T08:21:30.139Z,29.3
2018-12-24T08:22:20.772Z,29.3
2018-12-24T08:23:09.662Z,29.3
2018-12-24T08:24:00.534Z,29.3
2018-12-24T08:24:51.000Z,29.2
2018-12-24T08:25:40.736Z,29.2
2018-12-24T08:26:31.022Z,29.1
2018-12-24T08:27:20.799Z,29.1
2018-12-24T08:28:11.386Z,29.1
2018-12-24T08:29:01.711Z,28.8
2018-12-24T08:29:50.963Z,28.5
2018-12-24T08:30:40.758Z,28.3
2018-12-24T08:31:31.079Z,28.1
2018-12-24T08:32:21.093Z,28
2018-12-24T08:33:11.186Z,27.8
2018-12-24T08:34:01.121Z,27.6
2018-12-24T08:34:51.598Z,28
2018-12-24T08:36:30.646Z,27.5
2018-12-24T08:37:21.338Z,27.4
2018-12-24T08:38:10.871Z,27.4
2018-12-24T08:39:01.816Z,27.4
2018-12-24T08:39:51.906Z,27.6
2018-12-24T08:40:42.483Z,27.8
2018-12-24T08:41:31.559Z,27.9
2018-12-24T08:42:21.903Z,28.1
2018-12-24T08:43:11.418Z,28.3
2018-12-24T08:44:01.155Z,28.4
2018-12-24T08:44:52.450Z,28.5
2018-12-24T08:45:42.025Z,28.6
2018-12-24T08:46:32.415Z,28.7
2018-12-24T08:47:22.798Z,28.8
2018-12-24T08:48:12.122Z,28.8
2018-12-24T08:49:02.500Z,28.9
2018-12-24T08:49:51.741Z,29
2018-12-24T08:50:42.069Z,29.1
2018-12-24T08:51:33.333Z,29.1
2018-12-24T08:52:23.311Z,29.1
2018-12-24T08:53:12.839Z,29.2
2018-12-24T08:54:02.583Z,29.3
2018-12-24T08:54:53.026Z,29.3
2018-12-24T08:55:42.739Z,29.2
2018-12-24T08:56:35.681Z,29.1
2018-12-24T08:57:24.478Z,29.1
2018-12-24T08:58:13.408Z,29
2018-12-24T08:59:03.494Z,28.9
2018-12-24T08:59:52.988Z,28.9
2018-12-24T09:16:35.320Z,28.4
2018-12-24T09:17:25.451Z,28.6
2018-12-24T09:18:15.767Z,28.7
2018-12-24T09:19:05.353Z,28.8
2018-12-24T09:19:54.765Z,28.9
2018-12-24T09:20:53.581Z,28.9
2018-12-24T09:21:35.755Z,29
2018-12-24T09:22:25.495Z,29.1
2018-12-24T09:23:15.802Z,29.1
2018-12-24T09:24:06.365Z,29.2
2018-12-24T09:24:55.087Z,29.2
2018-12-24T09:25:45.693Z,29.2
2018-12-24T09:26:36.160Z,29.1
2018-12-24T09:27:26.078Z,29
2018-12-24T09:28:15.590Z,28.9
2018-12-24T09:29:06.667Z,28.8
2018-12-24T09:29:56.079Z,28.8
2018-12-24T09:30:46.972Z,28.7
2018-12-24T09:31:36.292Z,28.5
2018-12-24T09:32:25.666Z,28.2
2018-12-24T09:33:16.277Z,28
2018-12-24T09:34:05.712Z,27.9
2018-12-24T09:34:54.934Z,27.7
2018-12-24T09:35:46.497Z,27.4
2018-12-24T09:36:36.620Z,27.9
2018-12-24T09:37:26.781Z,27.6
2018-12-24T09:38:17.033Z,27.4
2018-12-24T09:39:06.609Z,27.4
2018-12-24T09:39:55.549Z,27.4
2018-12-24T09:40:46.155Z,27.4
2018-12-24T09:41:37.175Z,27.6
2018-12-24T09:43:17.175Z,27.9
2018-12-24T09:44:07.278Z,28.2
2018-12-24T09:45:06.093Z,28.3
2018-12-24T09:45:46.588Z,28.4
2018-12-24T09:46:37.260Z,28.6
2018-12-24T09:47:27.283Z,28.7
2018-12-24T09:48:17.595Z,28.8
2018-12-24T09:49:06.288Z,28.8
2018-12-24T09:49:56.828Z,28.9
2018-12-24T09:50:47.680Z,29
2018-12-24T09:51:38.048Z,29.1
2018-12-24T09:52:27.444Z,29.1
2018-12-24T09:53:18.542Z,29.2
2018-12-24T09:54:07.908Z,29.3
2018-12-24T09:54:56.412Z,29.2
2018-12-24T09:55:47.802Z,29.2
2018-12-24T09:56:37.608Z,29.1
2018-12-24T09:57:28.680Z,28.9
2018-12-24T09:58:18.300Z,28.9
2018-12-24T09:59:08.539Z,28.8
2018-12-24T09:59:58.417Z,28.6
2018-12-24T10:00:47.870Z,28.6
2018-12-24T10:01:38.039Z,28.4
2018-12-24T10:02:28.067Z,28.3
2018-12-24T10:03:18.927Z,28.3
2018-12-24T10:04:13.404Z,28.1
2018-12-24T10:04:58.192Z,28
2018-12-24T10:05:49.022Z,27.9
2018-12-24T10:07:27.448Z,27.8
2018-12-24T10:08:17.404Z,27.6
2018-12-24T10:09:08.939Z,27.3
2018-12-24T10:09:58.440Z,27.4
2018-12-24T10:10:49.411Z,27.4
2018-12-24T10:11:37.899Z,27.2
2018-12-24T10:12:29.141Z,27.1
2018-12-24T10:13:18.929Z,27.1
2018-12-24T10:14:09.635Z,27.1
2018-12-24T10:15:08.465Z,27.3
2018-12-24T10:15:51.470Z,27.6
2018-12-24T10:16:39.188Z,27.8
2018-12-24T10:17:28.469Z,27.9
2018-12-24T10:18:19.317Z,28.1
2018-12-24T10:19:09.083Z,28.3
2018-12-24T10:20:00.031Z,28.4
2018-12-24T10:20:49.214Z,28.6
2018-12-24T10:21:40.163Z,28.7
2018-12-24T10:22:29.795Z,28.8
2018-12-24T10:23:20.023Z,28.9
2018-12-24T10:24:10.018Z,28.9
2018-12-24T10:24:58.633Z,29.1
2018-12-24T10:25:50.616Z,29.1
2018-12-24T10:26:40.173Z,29.1
2018-12-24T10:27:30.512Z,29.1
2018-12-24T10:28:19.407Z,29.2
2018-12-24T10:29:09.285Z,29.3
2018-12-24T10:29:59.813Z,29.3
2018-12-24T10:30:49.540Z,29.3
2018-12-24T10:31:40.200Z,29.4
2018-12-24T10:32:29.227Z,29.4
2018-12-24T10:33:21.345Z,29.4
2018-12-24T10:34:10.629Z,29.4
2018-12-24T10:34:59.993Z,29.4
2018-12-24T10:35:50.852Z,29.3
2018-12-24T10:36:40.099Z,29.3
2018-12-24T10:37:30.759Z,29.3
2018-12-24T10:38:21.359Z,29.3
2018-12-24T10:39:11.059Z,29.2
2018-12-24T10:40:00.777Z,29.2
2018-12-24T10:40:50.785Z,29.1
2018-12-24T10:41:40.194Z,28.3
2018-12-24T10:42:31.492Z,28.2
2018-12-24T10:43:21.352Z,28.9
2018-12-24T10:44:10.269Z,28
2018-12-24T10:45:01.243Z,27.4
2018-12-24T10:45:51.154Z,27.2
2018-12-24T10:46:40.478Z,27.1
2018-12-24T10:47:30.694Z,27.1
2018-12-24T10:48:21.991Z,27.3
2018-12-24T10:49:11.721Z,27.6
2018-12-24T10:50:51.978Z,28
2018-12-24T10:51:41.256Z,28.2
2018-12-24T10:52:31.871Z,28.3
2018-12-24T10:53:19.426Z,28.5
2018-12-24T10:54:10.660Z,28.6
2018-12-24T10:55:00.978Z,28.8
2018-12-24T10:55:51.611Z,28.9
2018-12-24T10:56:43.837Z,28.9
2018-12-24T10:57:32.060Z,28.9
2018-12-24T10:58:22.044Z,29
2018-12-24T10:59:12.549Z,29.1
2018-12-24T11:00:01.491Z,29.2
2018-12-24T11:00:50.853Z,29.3
2018-12-24T11:01:42.289Z,29.4
2018-12-24T11:02:32.728Z,29.4
2018-12-24T11:03:21.573Z,29.5
2018-12-24T11:04:12.213Z,29.5
2018-12-24T11:05:02.561Z,29.6
2018-12-24T11:05:52.290Z,29.6
2018-12-24T11:06:42.161Z,29.6
2018-12-24T11:07:32.135Z,29.6
2018-12-24T11:08:21.890Z,29.5
2018-12-24T11:09:11.220Z,29.5
2018-12-24T11:10:02.615Z,29.5
2018-12-24T11:10:54.902Z,29.4
2018-12-24T11:11:42.401Z,29.4
2018-12-24T11:12:32.280Z,28.9
2018-12-24T11:13:22.585Z,28.2
2018-12-24T11:14:13.231Z,28.7
2018-12-24T11:15:01.755Z,28.6
2018-12-24T11:15:52.312Z,27.6
2018-12-24T11:16:42.263Z,27.3
2018-12-24T11:17:32.870Z,27.1
2018-12-24T11:18:22.687Z,27
2018-12-24T11:19:13.484Z,27.2
2018-12-24T11:20:03.855Z,27.4
2018-12-24T11:20:52.364Z,27.7
2018-12-24T11:21:41.791Z,27.9
2018-12-24T11:22:32.195Z,28.1
2018-12-24T11:23:22.982Z,28.3
2018-12-24T11:24:12.865Z,28.4
2018-12-24T11:25:03.686Z,28.6
2018-12-24T11:25:52.606Z,28.7
2018-12-24T11:26:43.213Z,28.8
2018-12-24T11:27:32.732Z,28.9
2018-12-24T11:28:23.622Z,28.9
2018-12-24T11:29:13.875Z,28.9
2018-12-24T11:30:04.703Z,28.9
2018-12-24T11:30:52.946Z,29
2018-12-24T11:31:43.782Z,29
2018-12-24T11:32:33.381Z,29.1
2018-12-24T11:33:24.841Z,29.1
2018-12-24T11:34:13.941Z,29.1
2018-12-24T11:35:04.173Z,29.1
2018-12-24T11:35:54.088Z,29.1
2018-12-24T11:36:44.181Z,29.1
2018-12-24T11:37:34.930Z,29.1
2018-12-24T11:38:24.750Z,29
2018-12-24T11:39:14.539Z,29
2018-12-24T11:40:04.256Z,28.9
2018-12-24T11:40:54.761Z,28.9
2018-12-24T11:41:44.718Z,28.9
2018-12-24T11:42:36.652Z,28.8
2018-12-24T11:43:24.480Z,28.3
2018-12-24T11:44:14.535Z,27.9
2018-12-24T11:45:04.647Z,28.5
2018-12-24T11:45:53.715Z,28
2018-12-24T11:46:45.575Z,27.4
2018-12-24T11:47:36.227Z,27.1
2018-12-24T11:48:25.010Z,27
2018-12-24T11:49:15.202Z,27
2018-12-24T11:50:04.753Z,27.3
2018-12-24T11:50:55.607Z,27.5
2018-12-24T11:51:45.400Z,27.8
2018-12-24T11:52:34.737Z,27.9
2018-12-24T11:53:26.365Z,28.1
2018-12-24T11:54:16.105Z,28.3
2018-12-24T11:55:06.436Z,28.4
2018-12-24T11:55:56.507Z,28.6
2018-12-24T11:56:45.772Z,28.7
2018-12-24T11:57:36.422Z,28.8
2018-12-24T11:58:26.832Z,28.9
2018-12-24T11:59:16.017Z,28.9
2018-12-24T12:00:06.229Z,28.9
2018-12-24T12:00:55.097Z,29
2018-12-24T12:01:46.275Z,29.1
2018-12-24T12:02:35.027Z,29.1
2018-12-24T12:03:26.515Z,29.2
2018-12-24T12:04:16.585Z,29.3
2018-12-24T12:05:06.244Z,29.3
2018-12-24T12:05:58.537Z,29.4
2018-12-24T12:06:46.187Z,29.4
2018-12-24T12:07:36.341Z,29.4
2018-12-24T12:08:26.638Z,29.4
2018-12-24T12:09:15.874Z,29.4
2018-12-24T12:10:06.207Z,29.3